createdAt,value
2022-09-17T00:00:56.720Z,13.48
2022-09-17T00:01:56.790Z,13.43
2022-09-17T00:03:49.916Z,13.29
2022-09-17T00:04:49.945Z,13.35
2022-09-17T00:06:54.073Z,13.43
2022-09-17T00:07:54.049Z,13.38
2022-09-17T00:09:57.233Z,13.35
2022-09-17T00:10:57.224Z,13.36
2022-09-17T00:12:50.429Z,13.28
2022-09-17T00:13:50.653Z,13.32
2022-09-17T00:15:43.487Z,13.32
2022-09-17T00:16:43.441Z,13.32
2022-09-17T00:18:36.633Z,13.38
2022-09-17T00:19:36.640Z,13.41
2022-09-17T00:21:40.718Z,13.29
2022-09-17T00:22:40.741Z,13.35
2022-09-17T00:24:34.027Z,13.35
2022-09-17T00:25:33.934Z,13.35
2022-09-17T00:27:38.055Z,13.44
2022-09-17T00:28:38.046Z,13.48
2022-09-17T00:30:31.321Z,13.44
2022-09-17T00:31:31.324Z,13.55
2022-09-17T00:33:24.420Z,13.51
2022-09-17T00:34:24.444Z,13.51
2022-09-17T00:36:17.619Z,13.63
2022-09-17T00:37:17.646Z,13.54
2022-09-17T00:39:10.824Z,13.66
2022-09-17T00:40:10.880Z,13.61
2022-09-17T00:42:04.014Z,13.68
2022-09-17T00:43:04.042Z,13.61
2022-09-17T00:44:57.253Z,13.59
2022-09-17T00:45:57.335Z,13.54
2022-09-17T00:47:50.565Z,13.63
2022-09-17T00:48:50.593Z,13.68
2022-09-17T00:50:43.762Z,13.65
2022-09-17T00:51:43.788Z,13.63
2022-09-17T00:53:36.962Z,13.57
2022-09-17T00:54:36.981Z,13.46
2022-09-17T00:56:30.148Z,13.53
2022-09-17T00:57:30.177Z,13.47
2022-09-17T00:59:23.347Z,13.35
2022-09-17T01:00:23.371Z,13.38
2022-09-17T01:02:27.673Z,13.44
2022-09-17T01:03:27.496Z,13.46
2022-09-17T01:05:20.470Z,13.46
2022-09-17T01:06:20.497Z,13.48
2022-09-17T01:08:13.710Z,13.54
2022-09-17T01:09:13.698Z,13.57
2022-09-17T01:11:17.748Z,13.57
2022-09-17T01:12:17.776Z,13.55
2022-09-17T01:14:10.981Z,13.54
2022-09-17T01:15:10.969Z,13.62
2022-09-17T01:17:04.150Z,13.61
2022-09-17T01:18:04.274Z,13.59
2022-09-17T01:19:57.374Z,13.68
2022-09-17T01:20:57.363Z,13.63
2022-09-17T01:22:50.532Z,13.68
2022-09-17T01:23:50.561Z,13.66
2022-09-17T01:25:43.544Z,13.63
2022-09-17T01:26:43.573Z,13.68
2022-09-17T01:28:36.735Z,13.66
2022-09-17T01:29:36.766Z,13.68
2022-09-17T01:31:29.978Z,13.66
2022-09-17T01:32:29.956Z,13.66
2022-09-17T01:34:23.264Z,13.75
2022-09-17T01:35:23.190Z,13.65
2022-09-17T01:37:16.351Z,13.63
2022-09-17T01:38:16.379Z,13.69
2022-09-17T01:40:20.467Z,13.63
2022-09-17T01:41:20.475Z,13.66
2022-09-17T01:43:13.648Z,13.79
2022-09-17T01:44:13.675Z,13.75
2022-09-17T01:46:06.700Z,13.68
2022-09-17T01:47:06.685Z,13.69
2022-09-17T01:48:59.856Z,13.62
2022-09-17T01:49:59.982Z,13.55
2022-09-17T01:51:53.096Z,13.55
2022-09-17T01:52:53.124Z,13.53
2022-09-17T01:54:46.291Z,13.53
2022-09-17T01:55:46.319Z,13.63
2022-09-17T01:57:39.494Z,13.53
2022-09-17T01:58:39.520Z,13.55
2022-09-17T02:00:32.743Z,13.62
2022-09-17T02:01:32.712Z,13.66
2022-09-17T02:03:25.930Z,13.61
2022-09-17T02:04:25.911Z,13.62
2022-09-17T02:06:30.066Z,13.51
2022-09-17T02:07:30.002Z,13.55
2022-09-17T02:09:23.207Z,13.61
2022-09-17T02:10:23.197Z,13.48
2022-09-17T02:12:27.258Z,13.51
2022-09-17T02:13:27.283Z,13.43
2022-09-17T02:15:20.271Z,13.53
2022-09-17T02:16:20.320Z,13.48
2022-09-17T02:18:24.584Z,13.62
2022-09-17T02:19:24.523Z,13.63
2022-09-17T02:21:28.601Z,13.59
2022-09-17T02:22:28.726Z,13.61
2022-09-17T02:24:21.898Z,13.50
2022-09-17T02:25:21.823Z,13.54
2022-09-17T02:27:25.881Z,13.50
2022-09-17T02:28:25.909Z,13.46
2022-09-17T02:30:29.995Z,13.51
2022-09-17T02:31:30.111Z,13.55
2022-09-17T02:33:34.145Z,13.54
2022-09-17T02:34:34.131Z,13.47
2022-09-17T02:36:38.223Z,13.51
2022-09-17T02:37:38.342Z,13.62
2022-09-17T02:39:31.475Z,13.55
2022-09-17T02:40:31.559Z,13.54
2022-09-17T02:42:24.625Z,13.62
2022-09-17T02:43:24.652Z,13.59
2022-09-17T02:45:17.676Z,13.71
2022-09-17T02:46:17.706Z,13.66
2022-09-17T02:48:21.715Z,13.71
2022-09-17T02:49:21.741Z,13.65
2022-09-17T02:51:25.810Z,13.66
2022-09-17T02:52:25.833Z,13.65
2022-09-17T02:54:19.107Z,13.63
2022-09-17T02:55:19.032Z,13.72
2022-09-17T02:57:23.093Z,13.73
2022-09-17T02:58:23.120Z,13.65
2022-09-17T03:00:16.128Z,13.65
2022-09-17T03:01:16.174Z,13.66
2022-09-17T03:03:20.242Z,13.69
2022-09-17T03:04:20.229Z,13.75
2022-09-17T03:06:24.319Z,13.75
2022-09-17T03:07:24.310Z,13.75
2022-09-17T03:09:28.464Z,13.71
2022-09-17T03:10:28.386Z,13.81
2022-09-17T03:12:32.454Z,13.75
2022-09-17T03:13:32.476Z,13.81
2022-09-17T03:15:25.450Z,13.73
2022-09-17T03:16:25.589Z,13.68
2022-09-17T03:18:29.561Z,13.71
2022-09-17T03:19:29.552Z,13.75
2022-09-17T03:21:33.603Z,13.75
2022-09-17T03:22:33.630Z,13.80
2022-09-17T03:24:37.817Z,13.72
2022-09-17T03:25:37.705Z,13.83
2022-09-17T03:27:41.758Z,13.79
2022-09-17T03:28:41.789Z,13.84
2022-09-17T03:30:45.839Z,13.76
2022-09-17T03:31:45.908Z,13.81
2022-09-17T03:33:49.952Z,13.83
2022-09-17T03:34:49.957Z,13.71
2022-09-17T03:36:54.129Z,13.86
2022-09-17T03:37:54.019Z,13.80
2022-09-17T03:39:58.311Z,13.83
2022-09-17T03:40:58.098Z,13.87
2022-09-17T03:43:02.189Z,13.88
2022-09-17T03:44:02.194Z,13.76
2022-09-17T03:45:55.187Z,13.83
2022-09-17T03:46:55.243Z,13.76
2022-09-17T03:48:59.229Z,13.81
2022-09-17T03:49:59.255Z,13.75
2022-09-17T03:52:03.323Z,13.86
2022-09-17T03:53:03.332Z,13.73
2022-09-17T03:55:07.529Z,13.84
2022-09-17T03:56:07.407Z,13.80
2022-09-17T03:58:11.464Z,13.75
2022-09-17T03:59:11.492Z,13.75
2022-09-17T04:01:15.607Z,13.83
2022-09-17T04:02:15.706Z,13.84
2022-09-17T04:04:19.620Z,13.76
2022-09-17T04:05:19.646Z,13.71
2022-09-17T04:07:23.736Z,13.75
2022-09-17T04:08:23.727Z,13.76
2022-09-17T04:10:27.878Z,13.83
2022-09-17T04:11:27.804Z,13.72
2022-09-17T04:13:31.902Z,13.80
2022-09-17T04:14:31.904Z,13.79
2022-09-17T04:16:36.028Z,13.79
2022-09-17T04:17:35.972Z,13.75
2022-09-17T04:19:40.020Z,13.75
2022-09-17T04:20:40.050Z,13.76
2022-09-17T04:22:44.141Z,13.83
2022-09-17T04:23:44.129Z,13.80
2022-09-17T04:25:37.202Z,13.76
2022-09-17T04:26:37.123Z,13.83
2022-09-17T04:28:41.173Z,13.73
2022-09-17T04:29:41.199Z,13.81
2022-09-17T04:31:45.293Z,13.73
2022-09-17T04:32:45.300Z,13.75
2022-09-17T04:34:49.391Z,13.71
2022-09-17T04:35:49.373Z,13.79
2022-09-17T04:37:53.426Z,13.79
2022-09-17T04:38:53.457Z,13.83
2022-09-17T04:40:57.639Z,13.83
2022-09-17T04:41:57.527Z,13.76
2022-09-17T04:44:01.575Z,13.79
2022-09-17T04:45:01.616Z,13.80
2022-09-17T04:47:05.653Z,13.87
2022-09-17T04:48:05.688Z,13.86
2022-09-17T04:50:09.769Z,13.88
2022-09-17T04:51:09.757Z,13.86
2022-09-17T04:53:13.814Z,13.88
2022-09-17T04:54:13.835Z,13.91
2022-09-17T04:56:06.911Z,13.98
2022-09-17T04:57:06.836Z,13.87
2022-09-17T04:59:10.890Z,14.04
2022-09-17T05:00:10.914Z,13.94
2022-09-17T05:02:15.030Z,13.99
2022-09-17T05:03:15.006Z,14.05
2022-09-17T05:05:19.056Z,13.98
2022-09-17T05:06:19.075Z,13.94
2022-09-17T05:08:23.121Z,13.96
2022-09-17T05:09:23.148Z,14.02
2022-09-17T05:11:27.301Z,14.01
2022-09-17T05:12:29.250Z,13.96
2022-09-17T05:14:31.314Z,13.94
2022-09-17T05:15:31.306Z,14.05
2022-09-17T05:17:35.374Z,13.90
2022-09-17T05:18:35.400Z,13.98
2022-09-17T05:20:39.493Z,14.06
2022-09-17T05:21:39.476Z,14.01
2022-09-17T05:23:43.531Z,13.98
2022-09-17T05:24:43.567Z,13.94
2022-09-17T05:26:47.754Z,13.94
2022-09-17T05:27:47.632Z,13.98
2022-09-17T05:29:51.721Z,14.01
2022-09-17T05:30:51.763Z,14.02
2022-09-17T05:32:55.800Z,13.94
2022-09-17T05:33:55.797Z,13.99
2022-09-17T05:35:48.759Z,14.08
2022-09-17T05:36:48.785Z,14.05
2022-09-17T05:38:52.841Z,14.08
2022-09-17T05:39:52.894Z,14.11
2022-09-17T05:41:57.026Z,14.05
2022-09-17T05:42:56.954Z,14.06
2022-09-17T05:45:01.005Z,13.99
2022-09-17T05:46:01.041Z,14.05
2022-09-17T05:48:05.125Z,14.06
2022-09-17T05:49:05.120Z,14.11
2022-09-17T05:51:09.170Z,14.11
2022-09-17T05:52:09.230Z,14.08
2022-09-17T05:54:13.287Z,14.16
2022-09-17T05:55:13.322Z,14.19
2022-09-17T05:57:17.454Z,14.17
2022-09-17T05:58:17.379Z,14.16
2022-09-17T06:00:21.524Z,14.23
2022-09-17T06:01:21.457Z,14.17
2022-09-17T06:03:25.521Z,14.19
2022-09-17T06:04:25.526Z,14.23
2022-09-17T06:06:29.553Z,14.17
2022-09-17T06:07:29.575Z,14.27
2022-09-17T06:09:33.632Z,14.24
2022-09-17T06:10:33.660Z,14.34
2022-09-17T06:12:37.802Z,14.24
2022-09-17T06:13:37.736Z,14.23
2022-09-17T06:15:30.748Z,14.23
2022-09-17T06:16:30.766Z,14.23
2022-09-17T06:18:34.832Z,14.24
2022-09-17T06:19:34.816Z,14.27
2022-09-17T06:21:38.868Z,14.24
2022-09-17T06:22:38.890Z,14.26
2022-09-17T06:24:42.977Z,14.19
2022-09-17T06:25:42.970Z,14.29
2022-09-17T06:27:47.170Z,14.23
2022-09-17T06:28:47.056Z,14.27
2022-09-17T06:30:51.095Z,14.30
2022-09-17T06:31:51.189Z,14.26
2022-09-17T06:33:55.237Z,14.20
2022-09-17T06:34:55.265Z,14.16
2022-09-17T06:36:59.316Z,14.20
2022-09-17T06:37:59.347Z,14.24
2022-09-17T06:40:03.666Z,14.26
2022-09-17T06:41:03.504Z,14.27
2022-09-17T06:43:07.655Z,14.24
2022-09-17T06:44:07.577Z,14.27
2022-09-17T06:46:00.547Z,14.24
2022-09-17T06:47:00.620Z,14.26
2022-09-17T06:49:04.628Z,14.31
2022-09-17T06:50:04.655Z,14.30
2022-09-17T06:52:08.743Z,14.36
2022-09-17T06:53:08.734Z,14.35
2022-09-17T06:55:12.790Z,14.31
2022-09-17T06:56:12.810Z,14.36
2022-09-17T06:58:16.953Z,14.36
2022-09-17T06:59:16.885Z,14.41
2022-09-17T07:01:21.021Z,14.42
2022-09-17T07:02:21.063Z,14.46
2022-09-17T07:04:25.054Z,14.39
2022-09-17T07:05:25.048Z,14.36
2022-09-17T07:07:29.090Z,14.34
2022-09-17T07:08:29.120Z,14.34
2022-09-17T07:10:33.173Z,14.30
2022-09-17T07:11:33.199Z,14.38
2022-09-17T07:13:37.349Z,14.30
2022-09-17T07:14:37.276Z,14.27
2022-09-17T07:16:41.365Z,14.20
2022-09-17T07:17:41.357Z,14.31
2022-09-17T07:19:45.409Z,14.23
2022-09-17T07:20:45.436Z,14.20
2022-09-17T07:22:49.520Z,14.29
2022-09-17T07:23:49.512Z,14.30
2022-09-17T07:25:42.493Z,14.27
2022-09-17T07:26:42.506Z,14.30
2022-09-17T07:28:46.693Z,14.35
2022-09-17T07:29:46.583Z,14.29
2022-09-17T07:31:50.703Z,14.38
2022-09-17T07:32:50.660Z,14.34
2022-09-17T07:34:54.750Z,14.38
2022-09-17T07:35:54.756Z,14.42
2022-09-17T07:37:58.793Z,14.46
2022-09-17T07:38:58.821Z,14.48
2022-09-17T07:41:02.930Z,14.49
2022-09-17T07:42:02.918Z,14.41
2022-09-17T07:44:07.085Z,14.41
2022-09-17T07:45:07.013Z,14.45
2022-09-17T07:47:11.103Z,14.46
2022-09-17T07:48:11.091Z,14.42
2022-09-17T07:50:15.138Z,14.53
2022-09-17T07:51:15.167Z,14.46
2022-09-17T07:53:19.269Z,14.45
2022-09-17T07:54:19.246Z,14.42
2022-09-17T07:56:23.299Z,14.49
2022-09-17T07:57:23.329Z,14.59
2022-09-17T07:59:27.519Z,14.49
2022-09-17T08:00:27.407Z,14.41
2022-09-17T08:02:31.598Z,14.49
2022-09-17T08:03:31.492Z,14.46
2022-09-17T08:05:24.458Z,14.59
2022-09-17T08:06:24.485Z,14.56
2022-09-17T08:08:28.537Z,14.54
2022-09-17T08:09:28.559Z,14.53
2022-09-17T08:11:54.608Z,14.49
2022-09-17T08:12:32.649Z,14.53
2022-09-17T08:14:36.798Z,14.53
2022-09-17T08:15:36.727Z,14.52
2022-09-17T08:17:40.804Z,14.56
2022-09-17T08:18:40.794Z,14.60
2022-09-17T08:20:44.892Z,14.71
2022-09-17T08:21:44.872Z,14.78
2022-09-17T08:23:48.915Z,14.82
2022-09-17T08:24:48.939Z,14.87
2022-09-17T08:26:53.021Z,14.94
2022-09-17T08:27:53.012Z,15.04
2022-09-17T08:29:57.191Z,15.20
2022-09-17T08:30:57.114Z,15.19
2022-09-17T08:33:01.129Z,15.37
2022-09-17T08:34:01.176Z,15.44
2022-09-17T08:35:54.132Z,15.46
2022-09-17T08:36:54.162Z,15.49
2022-09-17T08:38:58.204Z,15.55
2022-09-17T08:39:59.224Z,15.58
2022-09-17T08:42:02.271Z,15.51
2022-09-17T08:43:02.300Z,15.56
2022-09-17T08:45:06.446Z,15.60
2022-09-17T08:46:06.395Z,15.59
2022-09-17T08:48:10.817Z,15.74
2022-09-17T08:49:10.640Z,15.77
2022-09-17T08:51:14.484Z,15.86
2022-09-17T08:52:14.514Z,15.93
2022-09-17T08:54:18.596Z,16.04
2022-09-17T08:55:18.585Z,16.14
2022-09-17T08:57:22.632Z,16.16
2022-09-17T08:58:22.657Z,16.11
2022-09-17T08:59:29.890Z,16.25
2022-09-17T09:01:16.015Z,16.26
2022-09-17T09:02:15.974Z,16.29
2022-09-17T09:04:09.093Z,16.32
2022-09-17T09:05:09.084Z,16.42
2022-09-17T09:07:13.155Z,16.69
2022-09-17T09:08:13.181Z,16.72
2022-09-17T09:10:06.339Z,16.78
2022-09-17T09:11:06.383Z,16.75
2022-09-17T09:12:59.570Z,16.91
2022-09-17T09:13:59.603Z,17.05
2022-09-17T09:15:52.657Z,17.05
2022-09-17T09:16:52.666Z,17.00
2022-09-17T09:18:56.643Z,17.03
2022-09-17T09:19:56.673Z,16.98
2022-09-17T09:22:00.762Z,17.05
2022-09-17T09:23:00.756Z,17.03
2022-09-17T09:24:53.979Z,16.90
2022-09-17T09:25:53.953Z,16.88
2022-09-17T09:27:58.051Z,16.90
2022-09-17T09:28:58.080Z,16.99
2022-09-17T09:31:02.188Z,16.98
2022-09-17T09:32:02.238Z,16.91
2022-09-17T09:33:55.311Z,16.99
2022-09-17T09:34:55.342Z,16.96
2022-09-17T09:36:48.502Z,17.05
2022-09-17T09:37:48.539Z,17.05
2022-09-17T09:39:45.907Z,17.10
2022-09-17T09:40:41.726Z,17.10
2022-09-17T09:42:34.887Z,17.10
2022-09-17T09:43:59.584Z,17.09
2022-09-17T09:45:27.937Z,16.95
2022-09-17T09:46:27.982Z,16.82
2022-09-17T09:48:22.012Z,16.77
2022-09-17T09:49:21.234Z,16.69
2022-09-17T09:51:25.236Z,16.72
2022-09-17T09:52:25.264Z,16.70
2022-09-17T09:54:18.506Z,16.73
2022-09-17T09:55:21.335Z,16.70
2022-09-17T09:57:11.697Z,16.67
2022-09-17T09:58:11.689Z,16.70
2022-09-17T10:00:04.868Z,16.60
2022-09-17T10:01:04.895Z,16.55
2022-09-17T10:03:09.020Z,16.54
2022-09-17T10:04:09.110Z,16.55
2022-09-17T10:06:01.989Z,16.44
2022-09-17T10:07:02.016Z,16.44
2022-09-17T10:08:56.281Z,16.50
2022-09-17T10:09:56.281Z,16.52
2022-09-17T10:11:49.385Z,16.59
2022-09-17T10:12:49.405Z,16.66
2022-09-17T10:14:42.574Z,16.77
2022-09-17T10:15:42.636Z,16.78
2022-09-17T10:17:35.766Z,16.91
2022-09-17T10:18:35.801Z,17.06
2022-09-17T10:20:29.102Z,17.18
2022-09-17T10:21:29.000Z,17.32
2022-09-17T10:23:22.166Z,17.54
2022-09-17T10:24:22.194Z,17.65
2022-09-17T10:26:15.414Z,17.87
2022-09-17T10:27:15.405Z,17.98
2022-09-17T10:29:08.573Z,17.98
2022-09-17T10:30:08.597Z,17.94
2022-09-17T10:32:01.814Z,17.94
2022-09-17T10:33:01.798Z,17.66
2022-09-17T10:34:54.962Z,17.47
2022-09-17T10:35:55.089Z,17.27
2022-09-17T10:37:48.201Z,17.05
2022-09-17T10:38:48.205Z,16.88
2022-09-17T10:40:41.353Z,16.73
2022-09-17T10:41:41.386Z,16.75
2022-09-17T10:43:45.462Z,16.72
2022-09-17T10:44:45.490Z,16.70
2022-09-17T10:46:38.709Z,16.70
2022-09-17T10:47:38.689Z,16.88
2022-09-17T10:49:31.903Z,16.95
2022-09-17T10:50:31.908Z,17.03
2022-09-17T10:52:36.098Z,17.30
2022-09-17T10:53:36.002Z,17.46
2022-09-17T10:55:29.036Z,17.86
2022-09-17T10:56:29.030Z,17.98
2022-09-17T10:58:22.186Z,18.10
2022-09-17T10:59:22.228Z,18.25
2022-09-17T11:01:15.463Z,18.29
2022-09-17T11:02:15.590Z,18.26
2022-09-17T11:04:08.582Z,18.28
2022-09-17T11:05:08.607Z,18.16
2022-09-17T11:07:01.764Z,18.09
2022-09-17T11:08:01.897Z,18.14
2022-09-17T11:09:54.964Z,18.17
2022-09-17T11:10:54.995Z,18.25
2022-09-17T11:12:59.068Z,18.32
2022-09-17T11:13:59.117Z,18.16
2022-09-17T11:15:53.184Z,18.17
2022-09-17T11:16:52.115Z,18.04
2022-09-17T11:18:45.278Z,17.99
2022-09-17T11:19:45.308Z,18.01
2022-09-17T11:21:49.397Z,18.04
2022-09-17T11:22:49.442Z,18.19
2022-09-17T11:24:53.609Z,18.23
2022-09-17T11:25:56.143Z,18.42
2022-09-17T11:27:57.596Z,18.57
2022-09-17T11:28:57.623Z,18.62
2022-09-17T11:30:50.841Z,18.84
2022-09-17T11:31:50.875Z,18.79
2022-09-17T11:33:44.000Z,18.84
2022-09-17T11:34:44.023Z,18.74
2022-09-17T11:36:37.254Z,18.39
2022-09-17T11:37:37.241Z,18.32
2022-09-17T11:39:41.367Z,18.09
2022-09-17T11:40:41.444Z,17.98
2022-09-17T11:42:34.505Z,17.99
2022-09-17T11:43:34.540Z,17.81
2022-09-17T11:45:27.508Z,17.89
2022-09-17T11:46:27.643Z,17.77
2022-09-17T11:48:20.791Z,17.71
2022-09-17T11:49:20.775Z,17.71
2022-09-17T11:51:13.979Z,17.60
2022-09-17T11:52:14.002Z,17.71
2022-09-17T11:54:07.219Z,17.63
2022-09-17T11:55:07.207Z,17.73
2022-09-17T11:57:11.445Z,17.94
2022-09-17T11:58:11.379Z,17.99
2022-09-17T12:00:15.538Z,18.32
2022-09-17T12:01:15.526Z,18.44
2022-09-17T12:03:08.733Z,18.68
2022-09-17T12:04:08.718Z,18.78
2022-09-17T12:06:01.718Z,18.94
2022-09-17T12:07:01.750Z,19.02
2022-09-17T12:08:54.975Z,19.15
2022-09-17T12:09:54.968Z,19.28
2022-09-17T12:11:48.129Z,19.13
2022-09-17T12:12:50.423Z,19.10
2022-09-17T12:14:52.258Z,18.99
2022-09-17T12:15:53.702Z,18.86
2022-09-17T12:17:45.419Z,18.78
2022-09-17T12:18:45.475Z,18.76
2022-09-17T12:20:49.578Z,18.82
2022-09-17T12:21:49.570Z,18.84
2022-09-17T12:23:42.772Z,18.86
2022-09-17T12:24:42.763Z,18.91
2022-09-17T12:26:46.828Z,19.09
2022-09-17T12:27:46.857Z,19.17
2022-09-17T12:29:40.153Z,19.28
2022-09-17T12:30:40.071Z,19.39
2022-09-17T12:32:44.156Z,19.60
2022-09-17T12:33:44.185Z,19.67
2022-09-17T12:36:05.705Z,19.78
2022-09-17T12:36:37.195Z,19.95
2022-09-17T12:38:41.265Z,20.01
2022-09-17T12:39:41.297Z,20.01
2022-09-17T12:41:34.678Z,19.95
2022-09-17T12:42:34.515Z,19.80
2022-09-17T12:44:38.578Z,19.67
2022-09-17T12:45:38.701Z,19.67
2022-09-17T12:47:31.816Z,19.62
2022-09-17T12:48:31.810Z,19.61
2022-09-17T12:50:25.023Z,19.62
2022-09-17T12:51:25.021Z,19.65
2022-09-17T12:53:18.249Z,19.67
2022-09-17T12:54:18.210Z,19.72
2022-09-17T12:56:11.200Z,19.60
2022-09-17T12:57:11.243Z,19.57
2022-09-17T12:59:04.449Z,19.49
2022-09-17T13:00:07.629Z,19.45
2022-09-17T13:02:08.766Z,18.90
2022-09-17T13:03:08.522Z,18.87
2022-09-17T13:05:02.283Z,18.78
2022-09-17T13:06:01.717Z,18.76
2022-09-17T13:08:05.780Z,18.86
2022-09-17T13:09:05.828Z,18.93
2022-09-17T13:10:58.972Z,18.99
2022-09-17T13:11:59.010Z,18.96
2022-09-17T13:13:52.176Z,18.89
2022-09-17T13:14:52.209Z,18.90
2022-09-17T13:16:45.391Z,19.09
2022-09-17T13:17:52.424Z,19.27
2022-09-17T13:19:38.573Z,19.27
2022-09-17T13:20:38.602Z,19.28
2022-09-17T13:22:31.802Z,19.28
2022-09-17T13:23:31.796Z,19.34
2022-09-17T13:25:24.838Z,19.45
2022-09-17T13:26:24.867Z,19.53
2022-09-17T13:28:18.032Z,19.65
2022-09-17T13:29:18.065Z,19.72
2022-09-17T13:31:11.297Z,19.55
2022-09-17T13:32:11.293Z,19.61
2022-09-17T13:34:04.569Z,19.62
2022-09-17T13:35:04.504Z,19.60
2022-09-17T13:37:08.573Z,19.79
2022-09-17T13:38:08.603Z,19.85
2022-09-17T13:40:12.894Z,19.97
2022-09-17T13:41:12.744Z,19.94
2022-09-17T13:43:16.803Z,20.15
2022-09-17T13:44:16.834Z,20.33
2022-09-17T13:46:09.877Z,20.42
2022-09-17T13:47:09.845Z,20.41
2022-09-17T13:49:03.013Z,20.48
2022-09-17T13:50:03.141Z,20.33
2022-09-17T13:52:11.584Z,20.15
2022-09-17T13:53:07.152Z,20.02
2022-09-17T13:55:11.276Z,19.78
2022-09-17T13:56:11.258Z,19.76
2022-09-17T13:58:15.335Z,19.72
2022-09-17T13:59:15.365Z,19.60
2022-09-17T14:01:08.616Z,19.50
2022-09-17T14:02:08.633Z,19.58
2022-09-17T14:04:01.857Z,19.65
2022-09-17T14:05:01.759Z,19.71
2022-09-17T14:07:05.965Z,19.62
2022-09-17T14:08:05.863Z,19.70
2022-09-17T14:10:10.316Z,19.67
2022-09-17T14:11:10.150Z,19.78
2022-09-17T14:13:03.164Z,19.76
2022-09-17T14:14:03.155Z,19.70
2022-09-17T14:15:56.157Z,19.72
2022-09-17T14:16:56.155Z,19.70
2022-09-17T14:18:49.374Z,19.70
2022-09-17T14:19:51.476Z,19.71
2022-09-17T14:21:53.419Z,19.72
2022-09-17T14:22:53.541Z,19.55
2022-09-17T14:24:57.538Z,19.55
2022-09-17T14:25:57.550Z,19.50
2022-09-17T14:27:51.736Z,19.31
2022-09-17T14:28:51.793Z,19.30
2022-09-17T14:30:55.866Z,19.28
2022-09-17T14:31:55.860Z,19.20
2022-09-17T14:34:00.052Z,19.10
2022-09-17T14:34:59.973Z,19.02
2022-09-17T14:36:53.192Z,19.02
2022-09-17T14:37:53.165Z,18.93
2022-09-17T14:39:57.402Z,18.87
2022-09-17T14:40:57.281Z,18.79
2022-09-17T14:43:01.331Z,18.84
2022-09-17T14:44:01.361Z,18.71
2022-09-17T14:45:54.386Z,18.59
2022-09-17T14:46:54.403Z,18.49
2022-09-17T14:48:47.531Z,18.64
2022-09-17T14:49:47.563Z,18.62
2022-09-17T14:51:40.740Z,18.59
2022-09-17T14:52:40.780Z,18.56
2022-09-17T14:54:44.844Z,18.56
2022-09-17T14:55:44.973Z,18.59
2022-09-17T14:57:38.045Z,18.59
2022-09-17T14:58:38.077Z,18.62
2022-09-17T15:00:31.087Z,18.53
2022-09-17T15:01:31.239Z,18.44
2022-09-17T15:03:35.220Z,18.17
2022-09-17T15:04:35.197Z,18.13
2022-09-17T15:06:39.252Z,17.99
2022-09-17T15:07:43.025Z,18.11
2022-09-17T15:09:43.371Z,17.99
2022-09-17T15:10:43.365Z,18.07
2022-09-17T15:12:47.603Z,17.96
2022-09-17T15:13:47.523Z,17.96
2022-09-17T15:15:40.467Z,17.86
2022-09-17T15:16:40.547Z,17.91
2022-09-17T15:18:44.558Z,17.66
2022-09-17T15:19:44.584Z,17.74
2022-09-17T15:21:48.678Z,17.47
2022-09-17T15:22:48.669Z,17.46
2022-09-17T15:24:52.725Z,17.40
2022-09-17T15:25:52.762Z,17.28
2022-09-17T15:27:57.133Z,17.18
2022-09-17T15:28:57.027Z,17.07
2022-09-17T15:31:01.131Z,17.05
2022-09-17T15:32:01.112Z,17.02
2022-09-17T15:34:05.164Z,16.99
2022-09-17T15:35:05.196Z,16.91
2022-09-17T15:37:09.253Z,16.88
2022-09-17T15:38:22.797Z,16.90
2022-09-17T15:40:13.408Z,16.85
2022-09-17T15:41:15.651Z,16.82
2022-09-17T15:43:17.435Z,16.78
2022-09-17T15:44:32.750Z,16.80
2022-09-17T15:46:10.475Z,16.72
2022-09-17T15:47:10.466Z,16.90
2022-09-17T15:49:14.558Z,16.82
2022-09-17T15:50:14.551Z,16.92
2022-09-17T15:52:18.604Z,16.92
2022-09-17T15:53:18.633Z,16.88
2022-09-17T15:55:22.684Z,16.87
2022-09-17T15:56:22.711Z,16.75
2022-09-17T15:58:26.910Z,16.67
2022-09-17T15:59:26.801Z,16.52
2022-09-17T16:01:30.911Z,16.33
2022-09-17T16:02:30.998Z,16.26
2022-09-17T16:04:34.935Z,16.14
2022-09-17T16:05:34.963Z,16.17
2022-09-17T16:07:39.016Z,16.07
2022-09-17T16:08:39.052Z,16.10
2022-09-17T16:10:43.138Z,16.11
2022-09-17T16:11:43.128Z,16.07
2022-09-17T16:13:47.293Z,15.98
2022-09-17T16:14:47.210Z,15.85
2022-09-17T16:16:51.263Z,15.78
2022-09-17T16:17:51.293Z,15.85
2022-09-17T16:19:55.382Z,15.73
2022-09-17T16:20:55.375Z,15.77
2022-09-17T16:22:59.429Z,15.62
2022-09-17T16:23:59.456Z,15.60
2022-09-17T16:25:52.468Z,15.60
2022-09-17T16:26:52.454Z,15.64
2022-09-17T16:28:56.608Z,15.60
2022-09-17T16:29:56.535Z,15.55
2022-09-17T16:32:00.588Z,15.44
2022-09-17T16:33:00.677Z,15.43
2022-09-17T16:35:04.698Z,15.37
2022-09-17T16:36:04.700Z,15.33
2022-09-17T16:38:08.746Z,15.18
2022-09-17T16:39:08.777Z,15.04
2022-09-17T16:41:12.864Z,15.05
2022-09-17T16:42:12.865Z,15.09
2022-09-17T16:44:17.046Z,15.09
2022-09-17T16:45:16.939Z,14.98
2022-09-17T16:47:20.993Z,14.91
2022-09-17T16:48:21.035Z,14.67
2022-09-17T16:50:25.092Z,14.54
2022-09-17T16:51:25.097Z,14.56
2022-09-17T16:53:29.153Z,14.67
2022-09-17T16:54:29.182Z,14.60
2022-09-17T16:56:33.281Z,14.54
2022-09-17T16:57:33.260Z,14.56
2022-09-17T16:59:37.422Z,14.44
2022-09-17T17:00:37.517Z,14.46
2022-09-17T17:02:41.579Z,14.31
2022-09-17T17:03:41.429Z,14.45
2022-09-17T17:05:34.399Z,14.44
2022-09-17T17:06:34.426Z,14.48
2022-09-17T17:08:38.475Z,14.44
2022-09-17T17:09:38.501Z,14.44
2022-09-17T17:11:42.543Z,14.48
2022-09-17T17:12:42.572Z,14.49
2022-09-17T17:14:46.721Z,14.41
2022-09-17T17:15:46.681Z,14.41
2022-09-17T17:17:50.743Z,14.35
2022-09-17T17:18:50.731Z,14.34
2022-09-17T17:20:54.789Z,14.30
2022-09-17T17:21:54.810Z,14.36
2022-09-17T17:23:58.862Z,14.36
2022-09-17T17:24:58.887Z,14.31
2022-09-17T17:26:52.055Z,14.46
2022-09-17T17:27:52.082Z,14.31
2022-09-17T17:29:56.292Z,14.41
2022-09-17T17:30:56.253Z,14.42
2022-09-17T17:33:00.216Z,14.44
2022-09-17T17:34:00.304Z,14.48
2022-09-17T17:35:53.213Z,14.42
2022-09-17T17:36:53.238Z,14.46
2022-09-17T17:38:57.328Z,14.39
2022-09-17T17:39:57.334Z,14.31
2022-09-17T17:42:01.387Z,14.34
2022-09-17T17:43:01.402Z,14.31
2022-09-17T17:45:05.550Z,14.36
2022-09-17T17:46:05.507Z,14.31
2022-09-17T17:48:09.534Z,14.31
2022-09-17T17:49:09.557Z,14.35
2022-09-17T17:51:13.610Z,14.31
2022-09-17T17:52:13.633Z,14.30
2022-09-17T17:54:17.718Z,14.27
2022-09-17T17:55:17.709Z,14.21
2022-09-17T17:57:22.161Z,14.21
2022-09-17T17:58:21.991Z,14.24
2022-09-17T18:00:25.946Z,14.20
2022-09-17T18:01:25.916Z,14.13
2022-09-17T18:03:29.930Z,14.05
2022-09-17T18:04:29.956Z,13.90
2022-09-17T18:06:34.042Z,13.93
2022-09-17T18:07:34.033Z,13.94
2022-09-17T18:09:38.081Z,13.94
2022-09-17T18:10:38.107Z,13.98
2022-09-17T18:12:42.205Z,13.99
2022-09-17T18:13:42.193Z,13.90
2022-09-17T18:15:35.253Z,13.96
2022-09-17T18:16:35.257Z,14.01
2022-09-17T18:18:44.180Z,13.90
2022-09-17T18:19:39.254Z,14.04
2022-09-17T18:21:43.339Z,13.98
2022-09-17T18:22:43.329Z,13.96
2022-09-17T18:24:47.424Z,13.91
2022-09-17T18:25:47.403Z,13.83
2022-09-17T18:27:51.459Z,13.90
2022-09-17T18:28:51.485Z,13.86
2022-09-17T18:30:55.691Z,13.90
2022-09-17T18:31:55.673Z,13.88
2022-09-17T18:33:59.715Z,13.83
2022-09-17T18:34:59.642Z,13.80
2022-09-17T18:37:03.714Z,13.87
2022-09-17T18:38:03.741Z,13.83
2022-09-17T18:40:07.893Z,13.84
2022-09-17T18:41:07.818Z,13.79
2022-09-17T18:43:11.869Z,13.73
2022-09-17T18:44:11.899Z,13.69
2022-09-17T18:46:05.011Z,13.63
2022-09-17T18:47:04.894Z,13.51
2022-09-17T18:49:08.979Z,13.44
2022-09-17T18:50:08.969Z,13.35
2022-09-17T18:52:13.025Z,13.36
2022-09-17T18:53:13.066Z,13.35
2022-09-17T18:55:17.139Z,13.39
2022-09-17T18:56:17.127Z,13.39
2022-09-17T18:58:21.179Z,13.46
2022-09-17T18:59:21.208Z,13.41
2022-09-17T19:01:25.505Z,13.44
2022-09-17T19:02:25.365Z,13.38
2022-09-17T19:04:29.375Z,13.38
2022-09-17T19:05:29.361Z,13.41
2022-09-17T19:07:33.417Z,13.36
2022-09-17T19:08:33.446Z,13.38
2022-09-17T19:10:37.491Z,13.31
2022-09-17T19:11:37.522Z,13.27
2022-09-17T19:13:41.756Z,13.29
2022-09-17T19:14:41.603Z,13.38
2022-09-17T19:16:45.746Z,13.32
2022-09-17T19:17:45.674Z,13.29